Time;durP1;ratioP1;P1;durP2;ratioP2;P2;SDS_P1;SDS_P2;PMS_P1;PMS_P2;Temp;Humidity;BMP_temperature;BMP_pressure;BME280_temperature;BME280_humidity;BME280_pressure;Samples;Min_cycle;Max_cycle;Signal;HPM_P1;HPM_P2
2022/08/16 00:00:34;;;;;;;1.07;0.50;;;18.50;99.90;;;;;;5114217;28;20826;-79
2022/08/16 00:03:02;;;;;;;1.43;0.70;;;18.50;99.90;;;;;;5114004;28;20432;-79
2022/08/16 00:05:31;;;;;;;2.20;0.80;;;18.50;99.90;;;;;;5114240;28;20439;-78
2022/08/16 00:07:58;;;;;;;0.50;0.50;;;18.50;99.90;;;;;;5114408;28;20450;-79
2022/08/16 00:10:28;;;;;;;1.00;0.57;;;18.50;99.90;;;;;;5113926;28;20610;-79
2022/08/16 00:12:55;;;;;;;0.77;0.77;;;18.50;99.90;;;;;;5113841;28;20914;-79
2022/08/16 00:15:24;;;;;;;0.70;0.70;;;18.50;99.90;;;;;;5114014;28;20458;-79
2022/08/16 00:17:51;;;;;;;0.70;0.60;;;18.50;99.90;;;;;;5114071;28;20439;-78
2022/08/16 00:20:22;;;;;;;1.10;1.00;;;18.40;99.90;;;;;;5113962;28;20446;-79
2022/08/16 00:22:50;;;;;;;1.07;0.80;;;18.40;99.90;;;;;;5113995;28;20431;-79
2022/08/16 00:25:18;;;;;;;1.00;0.93;;;18.40;99.90;;;;;;5113959;28;20470;-79
2022/08/16 00:27:45;;;;;;;0.93;0.77;;;18.40;99.90;;;;;;5114156;28;20450;-79
2022/08/16 00:30:14;;;;;;;1.53;0.77;;;18.40;99.90;;;;;;5113813;28;20447;-79
2022/08/16 00:32:44;;;;;;;1.53;1.43;;;18.50;99.90;;;;;;5113538;28;20938;-79
2022/08/16 00:35:14;;;;;;;0.60;0.53;;;18.50;99.90;;;;;;5114107;28;20445;-79
2022/08/16 00:37:42;;;;;;;2.23;0.93;;;18.50;99.90;;;;;;5113840;28;20450;-79
2022/08/16 00:40:11;;;;;;;0.70;0.50;;;18.50;99.90;;;;;;5113709;28;20442;-79
2022/08/16 00:42:37;;;;;;;2.70;0.60;;;18.40;99.90;;;;;;5113465;28;20806;-79
2022/08/16 00:45:11;;;;;;;1.27;0.83;;;18.40;99.90;;;;;;5113996;28;20435;-79
2022/08/16 00:47:44;;;;;;;1.33;0.80;;;18.50;99.90;;;;;;5113758;28;20419;-79
2022/08/16 00:50:11;;;;;;;0.80;0.80;;;18.40;99.90;;;;;;5113708;28;20440;-79
2022/08/16 00:52:38;;;;;;;1.20;0.83;;;18.40;99.90;;;;;;5115938;28;20450;-78
2022/08/16 00:55:07;;;;;;;1.33;1.23;;;18.40;99.90;;;;;;5117873;28;20447;-79
2022/08/16 00:57:36;;;;;;;0.83;0.70;;;18.40;99.90;;;;;;5117702;28;20474;-79
2022/08/16 01:00:05;;;;;;;0.87;0.60;;;18.40;99.90;;;;;;5117436;28;20793;-79
2022/08/16 01:02:32;;;;;;;0.70;0.60;;;18.40;99.90;;;;;;5117701;28;20534;-79
2022/08/16 01:04:59;;;;;;;0.63;0.60;;;18.40;99.90;;;;;;5117726;28;20811;-79
2022/08/16 01:07:25;;;;;;;1.13;0.63;;;18.30;99.90;;;;;;5117530;28;20952;-79
2022/08/16 01:09:52;;;;;;;0.60;0.60;;;18.40;99.90;;;;;;5117543;28;20447;-79
2022/08/16 01:12:20;;;;;;;1.63;0.70;;;18.40;99.90;;;;;;5117411;28;20459;-79
2022/08/16 01:14:54;;;;;;;1.47;0.60;;;18.40;99.90;;;;;;5117521;28;20484;-79
2022/08/16 01:17:22;;;;;;;1.33;1.10;;;18.50;99.90;;;;;;5117397;27;20494;-79
2022/08/16 01:19:54;;;;;;;1.03;1.03;;;18.50;99.90;;;;;;5117243;27;20447;-79
2022/08/16 01:22:28;;;;;;;0.67;0.60;;;18.50;99.90;;;;;;5117276;28;20462;-79
2022/08/16 01:25:01;;;;;;;1.90;1.03;;;18.50;99.90;;;;;;5117824;28;20781;-79
2022/08/16 01:27:32;;;;;;;0.60;0.50;;;18.50;99.90;;;;;;5117243;28;20430;-79
2022/08/16 01:30:03;;;;;;;0.90;0.80;;;18.50;99.90;;;;;;5117221;28;20438;-79
2022/08/16 01:32:34;;;;;;;0.90;0.60;;;18.50;99.90;;;;;;5116795;28;20458;-79
2022/08/16 01:35:04;;;;;;;0.87;0.50;;;18.50;99.90;;;;;;5117352;28;20434;-78
2022/08/16 01:37:41;;;;;;;2.50;1.23;;;18.40;99.90;;;;;;5116958;28;20479;-78
2022/08/16 01:40:11;;;;;;;0.73;0.57;;;18.40;99.90;;;;;;5116623;28;20423;-79
2022/08/16 01:42:38;;;;;;;0.60;0.60;;;18.30;99.90;;;;;;5117310;28;20431;-79
2022/08/16 01:45:06;;;;;;;0.93;0.53;;;18.30;99.90;;;;;;5117177;28;20443;-79
2022/08/16 01:47:35;;;;;;;1.23;0.63;;;18.40;99.90;;;;;;5116880;28;20434;-79
2022/08/16 01:50:03;;;;;;;0.80;0.70;;;18.40;99.90;;;;;;5116807;28;20542;-78
2022/08/16 01:52:30;;;;;;;0.70;0.60;;;18.40;99.90;;;;;;5116775;28;20479;-79
2022/08/16 01:54:57;;;;;;;0.70;0.60;;;18.40;99.90;;;;;;5116703;28;20821;-79
2022/08/16 01:57:26;;;;;;;3.50;1.13;;;18.40;99.90;;;;;;5116609;28;20498;-78
2022/08/16 01:59:53;;;;;;;1.10;0.60;;;18.40;99.90;;;;;;5116303;28;20439;-79
2022/08/16 02:02:23;;;;;;;0.77;0.77;;;18.40;99.90;;;;;;5116181;27;20836;-79
2022/08/16 02:04:50;;;;;;;0.70;0.50;;;18.40;99.90;;;;;;5115465;28;20465;-79
2022/08/16 02:07:17;;;;;;;0.90;0.60;;;18.50;99.90;;;;;;5116523;28;20439;-79
2022/08/16 02:09:46;;;;;;;0.67;0.67;;;18.40;99.90;;;;;;5116403;28;20546;-79
2022/08/16 02:12:12;;;;;;;1.07;0.60;;;18.50;99.90;;;;;;5115863;28;20491;-78
2022/08/16 02:14:40;;;;;;;1.43;0.80;;;18.50;99.90;;;;;;5116211;28;20856;-78
2022/08/16 02:17:10;;;;;;;0.50;0.43;;;18.40;99.90;;;;;;5116191;28;20486;-78
2022/08/16 02:19:39;;;;;;;1.53;0.83;;;18.40;99.90;;;;;;5116211;28;20482;-79
2022/08/16 02:22:08;;;;;;;0.73;0.70;;;18.30;99.90;;;;;;5116088;28;20462;-79
2022/08/16 02:24:35;;;;;;;1.13;0.80;;;18.40;99.90;;;;;;5116237;28;20479;-78
2022/08/16 02:27:02;;;;;;;1.10;1.10;;;18.40;99.90;;;;;;5115782;28;20439;-79
2022/08/16 02:29:29;;;;;;;0.50;0.50;;;18.50;99.90;;;;;;5116020;28;20454;-78
2022/08/16 02:31:58;;;;;;;0.80;0.63;;;18.40;99.90;;;;;;5115610;28;20534;-79
2022/08/16 02:34:25;;;;;;;2.10;0.90;;;18.50;99.90;;;;;;5115954;28;20442;-79
2022/08/16 02:36:52;;;;;;;0.53;0.50;;;18.50;99.90;;;;;;5115482;28;20482;-79
2022/08/16 02:39:19;;;;;;;0.70;0.70;;;18.50;99.90;;;;;;5115815;28;20439;-78
2022/08/16 02:41:48;;;;;;;0.60;0.60;;;18.40;99.90;;;;;;5115424;28;20977;-78
2022/08/16 02:44:16;;;;;;;1.23;0.90;;;18.40;99.90;;;;;;5116023;28;20447;-78
2022/08/16 02:46:44;;;;;;;1.13;0.67;;;18.40;99.90;;;;;;5115912;28;20439;-78
2022/08/16 02:49:12;;;;;;;0.60;0.50;;;18.30;99.90;;;;;;5115639;28;20462;-79
2022/08/16 02:51:40;;;;;;;0.70;0.70;;;18.30;99.90;;;;;;5115517;28;20835;-78
2022/08/16 02:54:08;;;;;;;0.60;0.60;;;18.30;99.90;;;;;;5115235;28;20446;-78
2022/08/16 02:56:35;;;;;;;1.33;0.60;;;18.20;99.90;;;;;;5115413;28;20487;-79
2022/08/16 02:59:02;;;;;;;1.70;0.67;;;18.20;99.90;;;;;;5115443;28;20454;-79
2022/08/16 03:01:32;;;;;;;2.17;0.80;;;18.20;99.90;;;;;;5115320;28;20463;-79
2022/08/16 03:04:00;;;;;;;0.50;0.50;;;18.10;99.90;;;;;;5116190;28;20453;-79
2022/08/16 03:06:29;;;;;;;1.30;1.03;;;18.10;99.90;;;;;;5115313;28;20438;-79
2022/08/16 03:08:55;;;;;;;1.27;1.10;;;18.10;99.90;;;;;;5115241;28;20530;-79
2022/08/16 03:11:22;;;;;;;1.33;0.87;;;18.10;99.90;;;;;;5114737;28;20493;-79
2022/08/16 03:13:52;;;;;;;0.70;0.70;;;18.10;99.90;;;;;;5115162;28;20456;-79
2022/08/16 03:16:20;;;;;;;0.80;0.80;;;18.10;99.90;;;;;;5114517;28;20999;-79
2022/08/16 03:18:49;;;;;;;1.27;0.90;;;18.10;99.90;;;;;;5114744;28;20439;-78
2022/08/16 03:21:15;;;;;;;0.70;0.70;;;18.00;99.90;;;;;;5115136;28;20471;-78
2022/08/16 03:23:43;;;;;;;0.50;0.50;;;17.90;99.90;;;;;;5114667;28;20954;-79
2022/08/16 03:26:10;;;;;;;0.50;0.50;;;17.80;99.90;;;;;;5114880;28;20443;-78
2022/08/16 03:28:37;;;;;;;1.10;0.90;;;17.90;99.90;;;;;;5114569;28;20957;-79
2022/08/16 03:31:05;;;;;;;0.80;0.70;;;17.90;99.90;;;;;;5114997;28;20904;-78
2022/08/16 03:33:32;;;;;;;0.90;0.83;;;17.80;99.90;;;;;;5114808;28;20834;-78
2022/08/16 03:35:59;;;;;;;0.70;0.60;;;17.80;99.90;;;;;;5115019;28;20446;-78
2022/08/16 03:38:28;;;;;;;2.53;0.80;;;17.90;99.90;;;;;;5114535;28;21001;-78
2022/08/16 03:40:58;;;;;;;0.90;0.70;;;17.90;99.90;;;;;;5114573;28;20470;-78
2022/08/16 03:43:26;;;;;;;1.63;0.70;;;17.90;99.90;;;;;;5114607;28;20450;-78
2022/08/16 03:45:56;;;;;;;0.70;0.70;;;17.90;99.90;;;;;;5114240;28;20875;-79
2022/08/16 03:48:24;;;;;;;5.23;1.20;;;17.90;99.90;;;;;;5114566;28;20428;-79
2022/08/16 03:50:51;;;;;;;2.00;0.93;;;17.90;99.90;;;;;;5114389;28;20466;-79
2022/08/16 03:53:18;;;;;;;1.20;0.97;;;18.00;99.90;;;;;;5114105;28;21006;-79
2022/08/16 03:55:45;;;;;;;0.70;0.60;;;18.00;99.90;;;;;;5114347;28;20470;-78
2022/08/16 03:58:13;;;;;;;0.70;0.70;;;18.00;99.90;;;;;;5114299;28;20474;-78
2022/08/16 04:00:40;;;;;;;0.77;0.57;;;18.00;99.90;;;;;;5114298;28;20463;-78
2022/08/16 04:03:06;;;;;;;2.50;0.90;;;18.00;99.90;;;;;;5114274;28;20446;-79
2022/08/16 04:05:34;;;;;;;1.53;0.77;;;18.00;99.90;;;;;;5114496;28;20438;-79
2022/08/16 04:08:01;;;;;;;2.60;0.87;;;18.00;99.90;;;;;;5114204;28;20439;-78
2022/08/16 04:10:29;;;;;;;0.60;0.40;;;18.00;99.90;;;;;;5113813;28;20482;-79
2022/08/16 04:12:57;;;;;;;0.50;0.50;;;18.00;99.90;;;;;;5114081;28;20493;-78
2022/08/16 04:15:29;;;;;;;0.67;0.67;;;18.10;99.90;;;;;;5114102;28;20466;-79
2022/08/16 04:17:56;;;;;;;1.10;0.57;;;18.10;99.90;;;;;;5113697;28;20508;-79
2022/08/16 04:20:24;;;;;;;0.90;0.60;;;18.10;99.90;;;;;;5114186;28;20447;-79
2022/08/16 04:22:51;;;;;;;1.33;0.53;;;18.00;99.90;;;;;;5114000;28;20815;-79
2022/08/16 04:25:18;;;;;;;1.27;0.90;;;18.00;99.90;;;;;;5113962;28;20477;-79
2022/08/16 04:27:45;;;;;;;1.07;0.97;;;18.00;99.90;;;;;;5113321;28;20521;-79
2022/08/16 04:30:15;;;;;;;1.00;0.80;;;18.00;99.90;;;;;;5113810;28;20443;-79
2022/08/16 04:32:44;;;;;;;2.40;0.80;;;18.10;99.90;;;;;;5114131;28;20435;-79
2022/08/16 04:35:16;;;;;;;5.37;1.57;;;18.10;99.90;;;;;;5113864;28;20450;-79
2022/08/16 04:37:43;;;;;;;1.43;0.70;;;18.10;99.90;;;;;;5113787;28;20459;-79
2022/08/16 04:40:11;;;;;;;1.40;0.63;;;18.20;99.90;;;;;;5113728;28;20454;-79
2022/08/16 04:42:39;;;;;;;1.40;0.70;;;18.20;99.90;;;;;;5113770;28;20455;-79
2022/08/16 04:45:06;;;;;;;1.60;0.97;;;18.20;99.90;;;;;;5113791;28;20446;-79
2022/08/16 04:47:33;;;;;;;3.50;0.80;;;18.20;99.90;;;;;;5113778;28;20434;-79
2022/08/16 04:50:04;;;;;;;0.63;0.63;;;18.30;99.90;;;;;;5113431;28;20875;-79
2022/08/16 04:52:30;;;;;;;2.17;0.70;;;18.30;99.90;;;;;;5113778;28;20427;-79
2022/08/16 04:54:57;;;;;;;1.07;1.00;;;18.30;99.90;;;;;;5113692;28;20446;-79
2022/08/16 04:57:24;;;;;;;1.10;0.77;;;18.30;99.90;;;;;;5113598;28;20502;-79
2022/08/16 04:59:51;;;;;;;1.40;0.90;;;18.30;99.90;;;;;;5113642;28;20486;-79
2022/08/16 05:02:17;;;;;;;0.90;0.90;;;18.30;99.90;;;;;;5113575;28;20482;-79
2022/08/16 05:04:44;;;;;;;1.80;1.63;;;18.30;99.90;;;;;;5113616;28;20454;-79
2022/08/16 05:07:12;;;;;;;0.70;0.70;;;18.30;99.90;;;;;;5113576;28;20447;-79
2022/08/16 05:09:39;;;;;;;0.60;0.60;;;18.30;99.90;;;;;;5113547;28;20443;-79
2022/08/16 05:12:06;;;;;;;3.17;0.60;;;18.30;99.90;;;;;;5113243;28;20489;-79
2022/08/16 05:14:32;;;;;;;1.33;0.73;;;18.30;99.90;;;;;;5113532;28;20451;-79
2022/08/16 05:16:59;;;;;;;0.90;0.67;;;18.40;99.90;;;;;;5113443;28;20447;-79
2022/08/16 05:19:26;;;;;;;1.60;0.80;;;18.40;99.90;;;;;;5113227;28;20443;-79
2022/08/16 05:21:53;;;;;;;0.50;0.50;;;18.50;99.90;;;;;;5113184;28;21001;-79
2022/08/16 05:24:21;;;;;;;0.93;0.60;;;18.50;99.90;;;;;;5113557;28;20446;-79
2022/08/16 05:26:48;;;;;;;0.77;0.77;;;18.50;99.90;;;;;;5113391;28;20443;-79
2022/08/16 05:29:14;;;;;;;0.80;0.50;;;18.60;99.90;;;;;;5113444;28;20507;-79
2022/08/16 05:31:41;;;;;;;0.70;0.50;;;18.50;99.90;;;;;;5113045;28;20977;-79
2022/08/16 05:34:08;;;;;;;1.20;0.90;;;18.60;99.90;;;;;;5113060;28;20447;-79
2022/08/16 05:36:35;;;;;;;3.70;1.03;;;18.60;99.90;;;;;;5113306;28;20442;-79
2022/08/16 05:39:02;;;;;;;0.87;0.87;;;18.70;99.90;;;;;;5115560;28;20826;-79
2022/08/16 05:41:30;;;;;;;1.93;1.27;;;18.70;99.90;;;;;;5116935;28;20491;-79
2022/08/16 05:43:59;;;;;;;0.80;0.60;;;18.70;99.90;;;;;;5116983;28;20449;-79
2022/08/16 05:46:26;;;;;;;1.27;0.70;;;18.70;99.90;;;;;;5116847;28;21000;-79
2022/08/16 05:48:52;;;;;;;1.70;0.90;;;18.80;99.90;;;;;;5116576;28;20447;-79
2022/08/16 05:51:19;;;;;;;1.17;0.77;;;18.80;99.90;;;;;;5117046;27;20459;-79
2022/08/16 05:53:46;;;;;;;0.80;0.77;;;19.00;99.90;;;;;;5116745;28;20446;-79
2022/08/16 05:56:12;;;;;;;0.80;0.73;;;18.90;99.90;;;;;;5116667;28;20435;-79
2022/08/16 05:58:41;;;;;;;1.17;0.90;;;18.90;99.90;;;;;;5116619;28;20474;-79
2022/08/16 06:01:07;;;;;;;0.70;0.70;;;18.90;99.90;;;;;;5116539;28;20462;-79
2022/08/16 06:03:34;;;;;;;1.10;1.00;;;18.90;99.90;;;;;;5116601;28;20522;-79
2022/08/16 06:06:01;;;;;;;1.50;0.70;;;18.80;99.90;;;;;;5116548;28;20446;-79
2022/08/16 06:08:28;;;;;;;1.23;0.60;;;18.80;99.90;;;;;;5116469;27;20539;-79
2022/08/16 06:10:55;;;;;;;0.90;0.80;;;18.90;99.90;;;;;;5116115;28;20493;-79
2022/08/16 06:13:22;;;;;;;1.00;1.00;;;19.10;99.90;;;;;;5116367;27;20442;-79
2022/08/16 06:15:50;;;;;;;1.63;1.10;;;19.20;99.90;;;;;;5116029;28;20446;-79
2022/08/16 06:18:17;;;;;;;1.93;0.90;;;19.40;99.90;;;;;;5116486;28;20642;-79
2022/08/16 06:20:44;;;;;;;0.83;0.50;;;19.50;99.90;;;;;;5116132;28;20467;-79
2022/08/16 06:23:11;;;;;;;0.60;0.60;;;19.70;99.90;;;;;;5115902;28;20454;-79
2022/08/16 06:25:38;;;;;;;1.97;1.07;;;19.90;99.90;;;;;;5115843;28;20942;-79
2022/08/16 06:28:05;;;;;;;0.70;0.60;;;20.00;99.90;;;;;;5116085;28;20806;-79
2022/08/16 06:30:32;;;;;;;5.90;1.23;;;20.10;99.90;;;;;;5116025;28;20467;-79
2022/08/16 06:33:00;;;;;;;0.67;0.67;;;20.20;99.90;;;;;;5115720;28;20817;-79
2022/08/16 06:35:27;;;;;;;1.27;0.80;;;20.40;99.90;;;;;;5115643;28;20447;-79
2022/08/16 06:37:54;;;;;;;2.30;1.00;;;20.50;99.90;;;;;;5115901;28;20474;-79
2022/08/16 06:40:20;;;;;;;1.30;1.07;;;20.50;99.90;;;;;;5115798;28;20439;-79
2022/08/16 06:42:47;;;;;;;1.63;1.17;;;20.60;99.90;;;;;;5115506;28;20450;-79
2022/08/16 06:45:14;;;;;;;1.77;1.40;;;20.80;99.90;;;;;;5116573;28;20862;-79
2022/08/16 06:47:41;;;;;;;1.40;1.30;;;21.00;99.90;;;;;;5115752;28;20434;-79
2022/08/16 06:50:10;;;;;;;1.60;1.50;;;21.00;99.90;;;;;;5115110;28;20450;-79
2022/08/16 06:52:37;;;;;;;1.97;1.60;;;21.20;99.90;;;;;;5115683;28;20438;-79
2022/08/16 06:55:05;;;;;;;2.60;1.17;;;21.40;99.90;;;;;;5115602;28;20446;-79
2022/08/16 06:57:32;;;;;;;1.40;1.13;;;21.50;99.90;;;;;;5115490;28;20450;-79
2022/08/16 06:59:59;;;;;;;2.80;0.70;;;21.60;99.90;;;;;;5115591;28;20423;-79
2022/08/16 07:02:25;;;;;;;1.97;1.07;;;21.80;99.90;;;;;;5115366;28;20470;-79
2022/08/16 07:04:53;;;;;;;1.67;1.00;;;22.00;99.90;;;;;;5115387;28;20453;-79
2022/08/16 07:07:21;;;;;;;4.60;2.33;;;22.20;99.90;;;;;;5115501;28;20832;-79
2022/08/16 07:09:48;;;;;;;1.40;1.30;;;22.30;99.90;;;;;;5115567;28;20465;-79
2022/08/16 07:12:16;;;;;;;1.33;1.20;;;22.50;99.90;;;;;;5115040;28;20482;-79
2022/08/16 07:14:43;;;;;;;1.90;1.40;;;22.50;99.90;;;;;;5115150;28;20438;-79
2022/08/16 07:17:10;;;;;;;1.63;1.40;;;22.60;99.90;;;;;;5115206;28;20438;-80
2022/08/16 07:19:37;;;;;;;1.57;1.03;;;22.70;99.90;;;;;;5114805;28;20485;-80
2022/08/16 07:22:03;;;;;;;3.80;1.17;;;22.90;99.90;;;;;;5115029;28;20474;-79
2022/08/16 07:24:32;;;;;;;2.20;1.33;;;23.20;99.90;;;;;;5114694;28;20443;-80
2022/08/16 07:26:59;;;;;;;1.20;1.10;;;23.30;99.90;;;;;;5114634;28;20649;-79
2022/08/16 07:29:26;;;;;;;1.53;1.00;;;23.40;99.90;;;;;;5114918;28;20207;-79
2022/08/16 07:31:53;;;;;;;1.47;1.37;;;23.50;99.90;;;;;;5114497;28;20590;-80
2022/08/16 07:34:20;;;;;;;1.27;1.17;;;23.60;99.90;;;;;;5114850;28;20570;-79
2022/08/16 07:36:47;;;;;;;2.87;1.40;;;23.60;99.90;;;;;;5114813;28;20197;-79
2022/08/16 07:39:14;;;;;;;1.37;1.27;;;23.70;99.90;;;;;;5114689;28;20217;-79
2022/08/16 07:41:43;;;;;;;2.65;1.58;;;23.90;99.90;;;;;;5114736;28;20224;-79
2022/08/16 07:44:10;;;;;;;4.70;1.80;;;24.00;99.90;;;;;;5114673;28;20223;-79
2022/08/16 07:46:36;;;;;;;1.38;1.17;;;24.10;99.90;;;;;;5114620;28;20602;-79
2022/08/16 07:49:04;;;;;;;1.10;1.00;;;24.10;99.90;;;;;;5115421;28;20196;-79
2022/08/16 07:51:33;;;;;;;2.72;1.42;;;24.30;99.90;;;;;;5114137;28;20653;-79
2022/08/16 07:54:01;;;;;;;1.20;1.10;;;24.20;99.90;;;;;;5114424;28;20196;-79
2022/08/16 07:56:28;;;;;;;1.60;1.50;;;24.20;99.90;;;;;;5114430;28;20204;-79
2022/08/16 07:58:57;;;;;;;2.13;1.75;;;24.20;99.90;;;;;;5114332;27;20212;-80
2022/08/16 08:01:24;;;;;;;1.70;1.48;;;24.40;99.90;;;;;;5113720;28;20243;-79
2022/08/16 08:03:52;;;;;;;2.22;1.70;;;24.50;99.90;;;;;;5114285;28;20233;-80
2022/08/16 08:06:20;;;;;;;1.17;1.00;;;24.70;99.90;;;;;;5113988;28;20197;-80
2022/08/16 08:08:47;;;;;;;2.15;1.48;;;24.90;99.90;;;;;;5114263;28;20282;-79
2022/08/16 08:11:13;;;;;;;1.80;1.70;;;25.10;99.90;;;;;;5113901;28;20232;-80
2022/08/16 08:13:40;;;;;;;2.03;1.65;;;25.00;99.90;;;;;;5114271;28;20215;-79
2022/08/16 08:16:09;;;;;;;2.25;2.05;;;24.90;99.90;;;;;;5114198;28;20213;-79
2022/08/16 08:18:36;;;;;;;1.50;1.40;;;24.90;99.90;;;;;;5114106;28;20269;-79
2022/08/16 08:21:03;;;;;;;1.67;1.38;;;25.10;99.90;;;;;;5114006;28;20256;-80
2022/08/16 08:23:30;;;;;;;2.45;1.60;;;25.40;99.90;;;;;;5113703;28;20206;-80
2022/08/16 08:25:56;;;;;;;2.65;1.83;;;25.60;99.90;;;;;;5114084;28;20193;-83
2022/08/16 08:28:23;;;;;;;3.42;2.42;;;26.00;99.90;;;;;;5114524;28;20197;-83
2022/08/16 08:30:50;;;;;;;3.50;1.83;;;26.20;99.90;;;;;;5113842;28;20304;-83
2022/08/16 08:33:18;;;;;;;1.48;1.38;;;26.30;99.90;;;;;;5113969;28;20205;-83
2022/08/16 08:35:45;;;;;;;1.10;1.10;;;26.20;99.90;;;;;;5114054;28;20196;-83
2022/08/16 08:38:12;;;;;;;1.75;1.65;;;26.00;99.90;;;;;;5113830;28;20216;-83
2022/08/16 08:40:38;;;;;;;2.35;1.55;;;25.80;99.90;;;;;;5114026;28;20255;-83
2022/08/16 08:43:07;;;;;;;3.00;1.35;;;25.50;99.90;;;;;;5113805;28;20204;-83
2022/08/16 08:45:33;;;;;;;1.25;1.25;;;25.20;99.90;;;;;;5113757;28;20201;-83
2022/08/16 08:48:00;;;;;;;2.10;1.67;;;24.90;99.90;;;;;;5113504;28;20220;-82
2022/08/16 08:50:29;;;;;;;3.63;1.40;;;24.60;99.90;;;;;;5113704;28;20225;-83
2022/08/16 08:52:56;;;;;;;2.00;1.70;;;24.50;99.90;;;;;;5113608;28;20215;-83
2022/08/16 08:55:25;;;;;;;1.60;1.20;;;24.60;99.90;;;;;;5113767;28;20197;-83
2022/08/16 08:57:52;;;;;;;2.92;1.83;;;24.70;99.90;;;;;;5113691;28;20196;-83
2022/08/16 09:00:22;;;;;;;1.65;1.42;;;24.80;99.90;;;;;;5113587;28;20219;-83
2022/08/16 09:02:49;;;;;;;3.58;1.77;;;24.90;99.90;;;;;;5114070;28;20216;-83
2022/08/16 09:05:18;;;;;;;1.38;1.27;;;25.00;99.90;;;;;;5113738;28;20189;-83
2022/08/16 09:07:46;;;;;;;1.50;1.40;;;25.20;99.90;;;;;;5113362;28;20591;-83
2022/08/16 09:10:13;;;;;;;2.45;1.25;;;25.40;99.90;;;;;;5113500;28;20579;-83
2022/08/16 09:12:41;;;;;;;1.50;1.40;;;25.70;99.90;;;;;;5114173;28;20196;-83
2022/08/16 09:15:11;;;;;;;2.13;1.48;;;26.00;99.90;;;;;;5117456;28;20216;-83
2022/08/16 09:17:38;;;;;;;1.42;1.33;;;26.30;99.90;;;;;;5117844;27;20201;-83
2022/08/16 09:20:06;;;;;;;1.10;1.08;;;26.60;99.90;;;;;;5117385;28;20227;-83
2022/08/16 09:22:34;;;;;;;1.40;1.30;;;26.90;99.90;;;;;;5116887;28;20291;-83
2022/08/16 09:25:02;;;;;;;1.92;1.40;;;27.20;99.90;;;;;;5117164;28;20201;-83
2022/08/16 09:27:29;;;;;;;1.38;1.27;;;27.40;99.90;;;;;;5117374;28;20232;-83
2022/08/16 09:29:55;;;;;;;2.13;1.48;;;27.50;99.90;;;;;;5117016;28;20706;-83
2022/08/16 09:32:22;;;;;;;1.95;1.52;;;27.50;99.50;;;;;;5117159;28;20220;-83
2022/08/16 09:34:49;;;;;;;1.27;1.27;;;27.40;99.40;;;;;;5116858;28;20631;-84
2022/08/16 09:37:16;;;;;;;1.20;1.02;;;27.20;99.70;;;;;;5116929;28;20207;-83
2022/08/16 09:39:43;;;;;;;1.58;1.40;;;26.90;99.40;;;;;;5117278;28;20224;-83
2022/08/16 09:42:14;;;;;;;1.67;1.45;;;26.90;98.70;;;;;;5117046;28;20224;-83
2022/08/16 09:44:41;;;;;;;1.33;1.10;;;26.90;98.10;;;;;;5117026;28;20188;-83
2022/08/16 09:47:08;;;;;;;1.27;1.17;;;26.60;98.20;;;;;;5116988;28;20207;-83
2022/08/16 09:49:34;;;;;;;2.60;1.88;;;26.40;98.00;;;;;;5116921;28;20320;-83
2022/08/16 09:52:01;;;;;;;2.55;1.58;;;26.40;97.80;;;;;;5116812;28;20220;-83
2022/08/16 09:54:28;;;;;;;1.30;1.20;;;26.60;97.40;;;;;;5116789;28;20207;-83
2022/08/16 09:56:55;;;;;;;1.25;1.10;;;26.70;97.70;;;;;;5116450;28;20733;-83
2022/08/16 09:59:25;;;;;;;1.38;1.27;;;26.50;97.90;;;;;;5116623;28;20227;-83
2022/08/16 10:01:53;;;;;;;2.15;1.63;;;26.40;97.90;;;;;;5116606;28;20655;-83
2022/08/16 10:04:21;;;;;;;1.38;1.27;;;26.30;97.80;;;;;;5116631;28;20204;-83
2022/08/16 10:06:48;;;;;;;1.35;1.25;;;26.30;98.40;;;;;;5116556;28;20211;-83
2022/08/16 10:09:15;;;;;;;1.25;1.13;;;26.10;98.80;;;;;;5116611;28;20334;-86
2022/08/16 10:14:30;;;;;;;1.27;1.17;;;25.80;99.00;;;;;;5116507;28;20635;-83
2022/08/16 10:16:58;;;;;;;1.67;1.58;;;25.90;99.00;;;;;;5116073;28;20234;-83
2022/08/16 10:19:26;;;;;;;1.60;1.50;;;25.90;98.80;;;;;;5116247;28;20216;-83
2022/08/16 10:21:53;;;;;;;1.85;1.67;;;25.80;98.80;;;;;;5115898;28;20726;-83
2022/08/16 10:24:20;;;;;;;1.67;1.58;;;25.70;99.00;;;;;;5115306;28;20219;-83
2022/08/16 10:26:47;;;;;;;1.70;1.60;;;25.50;99.40;;;;;;5115946;28;20212;-83
2022/08/16 10:29:14;;;;;;;1.70;1.20;;;25.40;99.60;;;;;;5116144;28;20219;-83
2022/08/16 10:31:42;;;;;;;1.60;1.42;;;25.30;99.80;;;;;;5115821;28;20220;-83
2022/08/16 10:34:09;;;;;;;1.30;1.25;;;25.30;99.90;;;;;;5115609;28;20706;-82
2022/08/16 10:36:36;;;;;;;1.77;1.42;;;25.30;99.80;;;;;;5115870;28;20223;-80
2022/08/16 10:39:04;;;;;;;2.70;1.13;;;25.40;99.70;;;;;;5115856;28;20216;-78
2022/08/16 10:41:31;;;;;;;1.80;1.65;;;25.40;99.50;;;;;;5115646;28;20216;-82
2022/08/16 10:43:58;;;;;;;2.78;2.03;;;25.30;99.90;;;;;;5115447;28;20578;-82
2022/08/16 10:46:25;;;;;;;1.50;1.40;;;25.20;99.90;;;;;;5115668;28;20204;-82
2022/08/16 10:48:53;;;;;;;2.00;1.77;;;25.20;99.90;;;;;;5115315;28;20201;-82
2022/08/16 10:51:20;;;;;;;1.15;1.05;;;25.20;99.90;;;;;;5115150;28;20228;-82
2022/08/16 10:53:47;;;;;;;4.32;2.17;;;25.20;99.30;;;;;;5115181;28;20664;-82
2022/08/16 10:56:14;;;;;;;4.03;1.90;;;25.30;99.10;;;;;;5115354;28;20200;-82
2022/08/16 10:58:41;;;;;;;2.65;1.52;;;25.30;98.70;;;;;;5115401;28;20197;-82
2022/08/16 11:01:10;;;;;;;1.35;1.20;;;25.30;98.70;;;;;;5115546;28;20565;-82
2022/08/16 11:03:37;;;;;;;2.05;1.88;;;25.30;98.20;;;;;;5115466;28;20208;-78
2022/08/16 11:06:07;;;;;;;1.80;1.25;;;25.30;98.20;;;;;;5115871;28;20193;-78
2022/08/16 11:08:34;;;;;;;1.40;1.30;;;25.40;98.60;;;;;;5115425;28;20196;-77
2022/08/16 11:11:01;;;;;;;1.10;1.00;;;25.80;98.40;;;;;;5114893;27;20244;-82
2022/08/16 11:13:28;;;;;;;1.83;1.35;;;26.30;98.40;;;;;;5115177;28;20204;-77
2022/08/16 11:15:58;;;;;;;1.63;1.10;;;26.40;97.40;;;;;;5115657;28;20204;-77
2022/08/16 11:18:28;;;;;;;1.65;1.17;;;26.50;97.00;;;;;;5115809;28;20185;-77
2022/08/16 11:20:55;;;;;;;1.67;1.58;;;26.70;96.20;;;;;;5115200;28;20703;-82
2022/08/16 11:23:24;;;;;;;2.65;1.73;;;26.90;95.90;;;;;;5115035;28;20331;-82
2022/08/16 11:25:51;;;;;;;1.15;1.10;;;27.00;94.90;;;;;;5114837;28;20203;-82
2022/08/16 11:28:19;;;;;;;1.33;1.23;;;26.90;94.90;;;;;;5114575;28;20692;-82
2022/08/16 11:30:46;;;;;;;1.58;1.48;;;26.80;95.40;;;;;;5114449;28;20238;-82
2022/08/16 11:33:13;;;;;;;2.17;1.67;;;26.70;95.50;;;;;;5114973;28;20212;-82
2022/08/16 11:35:40;;;;;;;1.75;1.15;;;26.80;95.40;;;;;;5114619;28;20208;-82
2022/08/16 11:38:10;;;;;;;1.88;1.65;;;26.80;95.00;;;;;;5114566;28;20200;-81
2022/08/16 11:40:41;;;;;;;1.45;1.35;;;26.80;95.20;;;;;;5114483;28;20220;-79
2022/08/16 11:43:08;;;;;;;1.45;1.25;;;26.80;94.60;;;;;;5114597;28;20557;-78
2022/08/16 11:45:35;;;;;;;1.63;1.52;;;26.80;94.50;;;;;;5114252;28;20668;-78
2022/08/16 11:48:03;;;;;;;2.65;0.93;;;26.90;95.00;;;;;;5114615;28;20192;-78
2022/08/16 11:50:32;;;;;;;1.45;1.35;;;26.90;94.20;;;;;;5114445;28;20221;-78
2022/08/16 11:52:59;;;;;;;2.63;1.30;;;26.90;94.30;;;;;;5114437;28;20197;-78
2022/08/16 11:55:26;;;;;;;1.70;1.40;;;26.90;93.70;;;;;;5114454;28;20200;-78
2022/08/16 11:57:54;;;;;;;1.20;1.17;;;26.80;93.40;;;;;;5114413;28;20242;-79
2022/08/16 12:00:21;;;;;;;1.10;1.00;;;26.60;93.90;;;;;;5114217;28;20231;-79
2022/08/16 12:02:48;;;;;;;1.15;1.00;;;26.40;94.30;;;;;;5114019;28;20665;-79
2022/08/16 12:05:16;;;;;;;1.42;1.33;;;26.30;94.80;;;;;;5114324;28;20227;-78
2022/08/16 12:07:43;;;;;;;1.40;1.13;;;26.20;95.10;;;;;;5114148;28;20242;-78
2022/08/16 12:10:13;;;;;;;2.00;1.40;;;26.40;94.60;;;;;;5113907;28;20197;-78
2022/08/16 12:12:40;;;;;;;1.60;1.50;;;26.60;94.80;;;;;;5114237;28;20261;-78
2022/08/16 12:15:09;;;;;;;1.10;1.10;;;26.70;93.90;;;;;;5114112;28;20208;-78
2022/08/16 12:17:37;;;;;;;0.85;0.85;;;26.80;93.00;;;;;;5114159;28;20200;-78
2022/08/16 12:20:08;;;;;;;1.08;1.02;;;26.90;92.70;;;;;;5114045;28;20220;-78
2022/08/16 12:22:35;;;;;;;1.60;1.10;;;26.70;92.70;;;;;;5114295;28;20279;-78
2022/08/16 12:25:02;;;;;;;1.98;1.88;;;26.60;92.70;;;;;;5113988;28;20257;-78
2022/08/16 12:27:30;;;;;;;1.20;1.10;;;26.60;93.00;;;;;;5113933;28;20211;-80
2022/08/16 12:29:57;;;;;;;1.67;1.27;;;26.60;93.20;;;;;;5113922;28;20203;-78
2022/08/16 12:32:25;;;;;;;1.23;1.13;;;26.70;93.00;;;;;;5113503;28;20738;-78
2022/08/16 12:34:52;;;;;;;1.45;1.35;;;26.60;92.70;;;;;;5113570;28;20680;-79
2022/08/16 12:37:19;;;;;;;1.33;1.30;;;26.60;93.10;;;;;;5113944;28;20198;-78
2022/08/16 12:39:46;;;;;;;1.33;1.23;;;26.50;91.80;;;;;;5113827;28;20228;-78
2022/08/16 12:42:12;;;;;;;1.95;1.85;;;26.50;92.60;;;;;;5113869;28;20227;-78
2022/08/16 12:44:40;;;;;;;2.95;1.60;;;26.50;92.20;;;;;;5113861;28;20573;-78
2022/08/16 12:49:53;;;;;;;1.70;1.13;;;26.70;91.20;;;;;;5118141;28;20184;-78
2022/08/16 12:52:20;;;;;;;1.33;1.10;;;26.70;92.00;;;;;;5117980;28;20221;-78
2022/08/16 12:54:47;;;;;;;1.80;1.20;;;26.70;90.70;;;;;;5118004;28;20197;-78